createdAt,value
2023-12-19T00:02:24.727Z,4.53
2023-12-19T00:04:53.220Z,4.03
2023-12-19T00:07:24.745Z,4.20
2023-12-19T00:09:54.012Z,3.63
2023-12-19T00:12:22.600Z,4.32
2023-12-19T00:14:51.112Z,3.92
2023-12-19T00:17:19.499Z,3.55
2023-12-19T00:19:49.493Z,4.10
2023-12-19T00:22:17.975Z,4.10
2023-12-19T00:24:46.496Z,4.22
2023-12-19T00:27:15.065Z,4.03
2023-12-19T00:29:43.439Z,3.63
2023-12-19T00:32:11.896Z,4.10
2023-12-19T00:34:40.477Z,3.88
2023-12-19T00:37:10.314Z,3.50
2023-12-19T00:39:39.054Z,3.63
2023-12-19T00:42:07.820Z,3.97
2023-12-19T00:44:37.734Z,3.60
2023-12-19T00:47:06.560Z,3.72
2023-12-19T00:49:35.061Z,3.45
2023-12-19T00:52:03.765Z,4.00
2023-12-19T00:54:33.663Z,3.83
2023-12-19T00:57:02.335Z,3.72
2023-12-19T00:59:30.687Z,3.65
2023-12-19T01:01:59.185Z,3.55
2023-12-19T01:04:27.735Z,3.65
2023-12-19T01:06:56.286Z,3.97
2023-12-19T01:09:25.377Z,3.95
2023-12-19T01:11:55.276Z,3.63
2023-12-19T01:14:22.879Z,3.78
2023-12-19T01:16:51.503Z,3.42
2023-12-19T01:19:19.974Z,3.75
2023-12-19T01:21:50.176Z,3.40
2023-12-19T01:24:18.793Z,3.58
2023-12-19T01:26:50.450Z,3.47
2023-12-19T01:29:20.206Z,3.58
2023-12-19T01:31:48.726Z,3.42
2023-12-19T01:34:17.551Z,3.13
2023-12-19T01:36:56.616Z,3.50
2023-12-19T01:39:26.712Z,3.78
2023-12-19T01:41:55.208Z,3.65
2023-12-19T01:44:26.723Z,3.25
2023-12-19T01:46:55.316Z,3.33
2023-12-19T01:49:23.809Z,3.80
2023-12-19T01:51:52.402Z,3.63
2023-12-19T01:54:21.013Z,3.28
2023-12-19T01:56:49.546Z,3.20
2023-12-19T01:59:17.975Z,3.42
2023-12-19T02:01:47.910Z,3.22
2023-12-19T02:04:16.448Z,3.13
2023-12-19T02:06:45.089Z,3.50
2023-12-19T02:09:13.562Z,3.53
2023-12-19T02:11:41.950Z,3.45
2023-12-19T02:14:10.488Z,3.45
2023-12-19T02:16:39.639Z,3.20
2023-12-19T02:19:09.509Z,3.50
2023-12-19T02:21:38.193Z,3.50
2023-12-19T02:24:08.465Z,3.65
2023-12-19T02:26:37.127Z,3.42
2023-12-19T02:29:05.620Z,3.45
2023-12-19T02:31:34.283Z,3.17
2023-12-19T02:34:03.039Z,3.28
2023-12-19T02:36:31.735Z,3.65
2023-12-19T02:39:00.226Z,3.28
2023-12-19T02:41:30.074Z,3.47
2023-12-19T02:43:58.653Z,3.17
2023-12-19T02:46:27.128Z,3.20
2023-12-19T02:48:55.714Z,3.38
2023-12-19T02:51:24.247Z,3.33
2023-12-19T02:53:52.718Z,3.25
2023-12-19T02:56:21.198Z,3.17
2023-12-19T02:58:50.946Z,3.22
2023-12-19T03:01:20.165Z,3.28
2023-12-19T03:03:50.155Z,3.22
2023-12-19T03:06:20.582Z,2.80
2023-12-19T03:08:49.759Z,3.17
2023-12-19T03:11:18.370Z,3.50
2023-12-19T03:13:47.512Z,3.03
2023-12-19T03:16:17.546Z,3.10
2023-12-19T03:18:46.077Z,3.38
2023-12-19T03:21:14.505Z,3.15
2023-12-19T03:23:42.955Z,3.30
2023-12-19T03:26:11.314Z,3.00
2023-12-19T03:28:39.820Z,3.20
2023-12-19T03:31:08.297Z,2.85
2023-12-19T03:33:38.154Z,3.00
2023-12-19T03:36:07.314Z,3.22
2023-12-19T03:38:36.775Z,2.90
2023-12-19T03:41:05.695Z,2.50
2023-12-19T03:43:36.043Z,2.92
2023-12-19T03:46:08.890Z,2.88
2023-12-19T03:48:39.027Z,3.10
2023-12-19T03:51:09.153Z,2.72
2023-12-19T03:53:37.703Z,2.65
2023-12-19T03:56:07.224Z,2.65
2023-12-19T03:58:35.673Z,3.10
2023-12-19T04:01:04.246Z,2.90
2023-12-19T04:03:32.709Z,2.97
2023-12-19T04:06:02.531Z,3.08
2023-12-19T04:08:31.088Z,2.70
2023-12-19T04:10:59.430Z,2.85
2023-12-19T04:13:27.981Z,2.70
2023-12-19T04:15:56.397Z,3.15
2023-12-19T04:18:25.368Z,2.72
2023-12-19T04:20:53.865Z,2.97
2023-12-19T04:23:23.930Z,2.78
2023-12-19T04:25:52.505Z,2.67
2023-12-19T04:28:21.136Z,2.60
2023-12-19T04:30:49.929Z,2.70
2023-12-19T04:33:18.695Z,2.60
2023-12-19T04:35:47.114Z,2.55
2023-12-19T04:38:15.703Z,3.15
2023-12-19T04:40:45.660Z,2.75
2023-12-19T04:43:14.490Z,2.60
2023-12-19T04:45:43.244Z,2.70
2023-12-19T04:48:11.689Z,3.03
2023-12-19T04:50:40.386Z,2.50
2023-12-19T04:53:09.506Z,2.40
2023-12-19T04:55:38.038Z,2.53
2023-12-19T04:58:08.046Z,2.78
2023-12-19T05:00:36.634Z,2.80
2023-12-19T05:03:05.653Z,2.70
2023-12-19T05:05:34.143Z,2.75
2023-12-19T05:08:02.719Z,3.08
2023-12-19T05:10:31.210Z,3.20
2023-12-19T05:12:59.614Z,3.08
2023-12-19T05:15:29.550Z,2.72
2023-12-19T05:17:58.092Z,2.78
2023-12-19T05:20:29.201Z,3.08
2023-12-19T05:22:58.072Z,2.70
2023-12-19T05:25:26.643Z,2.80
2023-12-19T05:27:55.169Z,3.05
2023-12-19T05:30:23.997Z,2.70
2023-12-19T05:32:53.927Z,3.00
2023-12-19T05:35:22.529Z,3.05
2023-12-19T05:37:51.038Z,3.25
2023-12-19T05:40:20.267Z,2.55
2023-12-19T05:42:49.485Z,2.70
2023-12-19T05:45:17.931Z,2.50
2023-12-19T05:47:46.907Z,3.20
2023-12-19T05:50:17.461Z,3.05
2023-12-19T05:52:46.729Z,3.13
2023-12-19T05:55:15.606Z,2.83
2023-12-19T05:57:44.007Z,2.63
2023-12-19T06:00:14.120Z,2.63
2023-12-19T06:02:43.044Z,2.40
2023-12-19T06:05:11.913Z,2.47
2023-12-19T06:07:42.861Z,3.00
2023-12-19T06:10:12.181Z,3.30
2023-12-19T06:12:40.813Z,3.10
2023-12-19T06:15:12.888Z,2.90
2023-12-19T06:17:43.084Z,2.67
2023-12-19T06:20:12.279Z,2.50
2023-12-19T06:22:43.189Z,2.60
2023-12-19T06:25:11.829Z,3.15
2023-12-19T06:27:41.646Z,2.30
2023-12-19T06:30:19.838Z,2.75
2023-12-19T06:32:55.900Z,2.47
2023-12-19T06:35:24.771Z,2.80
2023-12-19T06:37:54.890Z,2.80
2023-12-19T06:40:23.378Z,2.90
2023-12-19T06:42:52.211Z,2.72
2023-12-19T06:45:21.116Z,2.78
2023-12-19T06:47:49.630Z,3.40
2023-12-19T06:50:20.021Z,2.72
2023-12-19T06:52:49.038Z,3.00
2023-12-19T06:55:19.481Z,2.85
2023-12-19T06:57:48.230Z,2.50
2023-12-19T07:00:18.385Z,2.70
2023-12-19T07:02:47.256Z,2.65
2023-12-19T07:05:15.880Z,2.60
2023-12-19T07:07:44.501Z,2.58
2023-12-19T07:10:14.184Z,4.07
2023-12-19T07:12:44.693Z,3.67
2023-12-19T07:15:13.408Z,4.22
2023-12-19T07:17:41.901Z,7.30
2023-12-19T07:20:12.801Z,5.93
2023-12-19T07:22:43.053Z,6.50
2023-12-19T07:25:12.313Z,6.20
2023-12-19T07:27:42.767Z,5.30
2023-12-19T07:30:14.982Z,5.10
2023-12-19T07:32:43.842Z,6.65
2023-12-19T07:35:14.856Z,5.18
2023-12-19T07:37:43.534Z,4.90
2023-12-19T07:40:14.308Z,5.82
2023-12-19T07:42:43.747Z,5.32
2023-12-19T07:45:14.274Z,5.85
2023-12-19T07:47:42.757Z,6.30
2023-12-19T07:50:12.962Z,6.05
2023-12-19T07:53:00.012Z,5.80
2023-12-19T07:55:28.505Z,5.70
2023-12-19T07:57:56.955Z,5.70
2023-12-19T08:00:27.104Z,6.18
2023-12-19T08:02:56.779Z,5.65
2023-12-19T08:05:26.093Z,6.05
2023-12-19T08:07:54.637Z,5.15
2023-12-19T08:10:23.161Z,5.30
2023-12-19T08:12:51.877Z,6.15
2023-12-19T08:15:20.293Z,5.25
2023-12-19T08:17:50.268Z,5.28
2023-12-19T08:20:18.911Z,5.00
2023-12-19T08:22:47.413Z,5.07
2023-12-19T08:25:16.186Z,4.97
2023-12-19T08:27:44.745Z,4.68
2023-12-19T08:30:16.383Z,4.82
2023-12-19T08:32:45.183Z,4.88
2023-12-19T08:35:15.463Z,4.47
2023-12-19T08:37:44.430Z,4.95
2023-12-19T08:40:13.866Z,4.20
2023-12-19T08:42:43.178Z,4.95
2023-12-19T08:45:16.978Z,4.13
2023-12-19T08:47:45.816Z,4.07
2023-12-19T08:50:16.780Z,4.22
2023-12-19T08:52:45.685Z,4.10
2023-12-19T08:55:14.513Z,4.10
2023-12-19T08:57:46.811Z,4.20
2023-12-19T09:00:17.604Z,4.03
2023-12-19T09:02:46.415Z,4.43
2023-12-19T09:05:18.217Z,4.32
2023-12-19T09:07:49.013Z,4.03
2023-12-19T09:10:18.432Z,4.03
2023-12-19T09:12:47.335Z,4.18
2023-12-19T09:15:15.892Z,3.97
2023-12-19T09:17:45.139Z,3.85
2023-12-19T09:20:14.982Z,3.60
2023-12-19T09:22:43.555Z,4.15
2023-12-19T09:25:16.664Z,4.00
2023-12-19T09:27:45.948Z,4.03
2023-12-19T09:30:16.191Z,3.85
2023-12-19T09:32:45.033Z,3.90
2023-12-19T09:35:15.620Z,3.67
2023-12-19T09:37:46.014Z,3.67
2023-12-19T09:40:17.084Z,5.82
2023-12-19T09:42:46.000Z,6.05
2023-12-19T09:45:16.708Z,5.30
2023-12-19T09:47:50.584Z,6.70
2023-12-19T09:50:21.917Z,6.95
2023-12-19T09:52:50.336Z,9.85
2023-12-19T09:55:19.197Z,11.27
2023-12-19T09:57:47.715Z,10.20
2023-12-19T10:00:16.570Z,11.77
2023-12-19T10:02:45.367Z,11.48
2023-12-19T10:05:13.898Z,12.68
2023-12-19T10:07:43.813Z,10.20
2023-12-19T10:10:13.907Z,12.13
2023-12-19T10:12:57.258Z,7.53
2023-12-19T10:15:27.824Z,6.70
2023-12-19T10:18:09.705Z,8.13
2023-12-19T10:20:39.479Z,11.30
2023-12-19T10:23:10.507Z,11.40
2023-12-19T10:25:45.534Z,14.63
2023-12-19T10:28:16.326Z,12.63
2023-12-19T10:30:46.124Z,13.60
2023-12-19T10:33:15.724Z,13.70
2023-12-19T10:35:46.417Z,10.82
2023-12-19T10:38:16.534Z,12.85
2023-12-19T10:40:45.023Z,11.50
2023-12-19T10:43:13.503Z,13.10
2023-12-19T10:45:42.018Z,12.70
2023-12-19T10:48:11.071Z,11.52
2023-12-19T10:50:39.839Z,9.63
2023-12-19T10:53:08.566Z,9.07
2023-12-19T10:55:44.324Z,8.95
2023-12-19T10:58:13.572Z,8.48
2023-12-19T11:00:43.241Z,8.13
2023-12-19T11:03:15.699Z,8.02
2023-12-19T11:05:46.923Z,8.40
2023-12-19T11:08:17.171Z,8.30
2023-12-19T11:10:52.544Z,7.75
2023-12-19T11:13:20.990Z,8.00
2023-12-19T11:15:53.321Z,6.95
2023-12-19T11:18:28.417Z,7.15
2023-12-19T11:21:02.958Z,7.53
2023-12-19T11:23:40.314Z,8.05
2023-12-19T11:26:12.833Z,7.03
2023-12-19T11:28:42.354Z,6.20
2023-12-19T11:31:32.359Z,7.47
2023-12-19T11:34:03.205Z,7.15
2023-12-19T11:36:31.868Z,6.82
2023-12-19T11:39:35.006Z,8.02
2023-12-19T11:42:08.131Z,10.65
2023-12-19T11:44:36.738Z,10.18
2023-12-19T11:47:17.734Z,10.48
2023-12-19T11:49:46.569Z,9.57
2023-12-19T11:52:34.319Z,9.02
2023-12-19T11:55:05.112Z,9.80
2023-12-19T11:57:36.031Z,9.52
2023-12-19T12:00:07.566Z,11.13
2023-12-19T12:02:38.609Z,11.38
2023-12-19T12:05:09.347Z,14.82
2023-12-19T12:07:43.614Z,15.93
2023-12-19T12:10:13.117Z,15.05
2023-12-19T12:12:43.038Z,15.73
2023-12-19T12:15:14.826Z,12.52
2023-12-19T12:17:45.739Z,12.45
2023-12-19T12:20:14.812Z,12.60
2023-12-19T12:22:43.499Z,12.32
2023-12-19T12:25:13.476Z,13.45
2023-12-19T12:27:43.771Z,11.73
2023-12-19T12:30:13.638Z,11.65
2023-12-19T12:32:42.975Z,10.32
2023-12-19T12:35:30.014Z,10.98
2023-12-19T12:38:01.806Z,9.90
2023-12-19T12:40:30.560Z,9.23
2023-12-19T12:43:34.829Z,8.95
2023-12-19T12:46:09.665Z,8.23
2023-12-19T12:48:40.167Z,8.38
2023-12-19T12:51:09.217Z,7.90
2023-12-19T12:53:38.268Z,7.88
2023-12-19T12:56:13.764Z,8.27
2023-12-19T12:58:44.351Z,7.93
2023-12-19T13:01:13.012Z,7.32
2023-12-19T13:03:42.536Z,7.70
2023-12-19T13:06:13.404Z,7.80
2023-12-19T13:08:41.861Z,7.38
2023-12-19T13:11:10.305Z,8.13
2023-12-19T13:13:39.180Z,7.75
2023-12-19T13:16:10.469Z,7.57
2023-12-19T13:18:42.278Z,7.15
2023-12-19T13:21:11.223Z,6.97
2023-12-19T13:23:39.853Z,7.20
2023-12-19T13:26:08.303Z,6.45
2023-12-19T13:28:37.548Z,6.90
2023-12-19T13:31:09.618Z,7.15
2023-12-19T13:33:40.270Z,6.53
2023-12-19T13:36:10.133Z,6.32
2023-12-19T13:38:38.702Z,6.93
2023-12-19T13:41:07.368Z,6.18
2023-12-19T13:43:37.298Z,6.50
2023-12-19T13:46:06.991Z,6.30
2023-12-19T13:48:35.902Z,5.93
2023-12-19T13:51:06.794Z,7.00
2023-12-19T13:53:35.601Z,5.50
2023-12-19T13:56:06.290Z,5.63
2023-12-19T13:58:35.607Z,6.22
2023-12-19T14:01:04.273Z,5.75
2023-12-19T14:03:33.191Z,6.25
2023-12-19T14:06:01.992Z,5.88
2023-12-19T14:08:33.180Z,5.82
2023-12-19T14:11:01.587Z,5.97
2023-12-19T14:13:29.973Z,5.95
2023-12-19T14:15:58.496Z,5.50
2023-12-19T14:18:27.128Z,5.80
2023-12-19T14:20:56.219Z,6.57
2023-12-19T14:23:24.677Z,5.45
2023-12-19T14:25:54.542Z,5.40
2023-12-19T14:28:23.269Z,5.45
2023-12-19T14:30:52.020Z,5.32
2023-12-19T14:33:20.887Z,5.25
2023-12-19T14:35:49.896Z,5.38
2023-12-19T14:38:18.360Z,5.35
2023-12-19T14:40:49.515Z,5.22
2023-12-19T14:43:20.623Z,5.07
2023-12-19T14:45:50.296Z,4.95
2023-12-19T14:48:18.804Z,5.35
2023-12-19T14:50:47.593Z,5.18
2023-12-19T14:53:16.212Z,4.97
2023-12-19T14:55:44.662Z,4.78
2023-12-19T14:58:13.460Z,5.13
2023-12-19T15:00:43.432Z,4.85
2023-12-19T15:03:11.893Z,4.75
2023-12-19T15:05:40.445Z,4.53
2023-12-19T15:08:09.151Z,4.80
2023-12-19T15:10:37.760Z,5.25
2023-12-19T15:13:07.283Z,4.85
2023-12-19T15:15:35.921Z,4.45
2023-12-19T15:18:07.521Z,4.45
2023-12-19T15:20:36.193Z,5.03
2023-12-19T15:23:08.226Z,4.47
2023-12-19T15:25:37.260Z,4.70
2023-12-19T15:28:12.319Z,4.63
2023-12-19T15:30:46.995Z,4.30
2023-12-19T15:33:17.102Z,4.35
2023-12-19T15:35:47.101Z,4.53
2023-12-19T15:38:16.766Z,4.32
2023-12-19T15:40:46.058Z,4.55
2023-12-19T15:43:25.928Z,4.15
2023-12-19T15:46:08.336Z,4.20
2023-12-19T15:48:38.531Z,4.40
2023-12-19T15:51:07.413Z,3.88
2023-12-19T15:53:36.082Z,3.60
2023-12-19T15:56:04.671Z,4.80
2023-12-19T15:58:35.524Z,4.20
2023-12-19T16:01:05.790Z,3.95
2023-12-19T16:03:34.418Z,4.70
2023-12-19T16:06:04.473Z,4.55
2023-12-19T16:08:34.138Z,4.15
2023-12-19T16:11:02.570Z,4.32
2023-12-19T16:13:30.997Z,3.95
2023-12-19T16:15:59.431Z,4.30
2023-12-19T16:18:28.521Z,4.82
2023-12-19T16:20:57.066Z,4.50
2023-12-19T16:23:26.869Z,4.57
2023-12-19T16:25:58.245Z,4.18
2023-12-19T16:28:26.991Z,4.40
2023-12-19T16:30:55.655Z,4.03
2023-12-19T16:33:25.311Z,4.78
2023-12-19T16:35:54.077Z,4.40
2023-12-19T16:38:22.988Z,4.03
2023-12-19T16:40:53.426Z,4.63
2023-12-19T16:43:22.679Z,4.25
2023-12-19T16:45:51.517Z,4.43
2023-12-19T16:48:20.321Z,3.92
2023-12-19T16:50:49.231Z,4.20
2023-12-19T16:53:18.037Z,3.97
2023-12-19T16:55:46.629Z,3.75
2023-12-19T16:58:16.909Z,4.25
2023-12-19T17:00:45.533Z,4.75
2023-12-19T17:03:14.145Z,3.88
2023-12-19T17:05:43.101Z,4.38
2023-12-19T17:08:11.795Z,4.45
2023-12-19T17:10:42.949Z,4.68
2023-12-19T17:13:11.444Z,4.10
2023-12-19T17:15:42.986Z,4.25
2023-12-19T17:18:11.645Z,4.72
2023-12-19T17:20:40.287Z,4.43
2023-12-19T17:23:08.870Z,4.15
2023-12-19T17:25:37.614Z,4.43
2023-12-19T17:28:06.735Z,3.92
2023-12-19T17:30:37.095Z,4.20
2023-12-19T17:33:07.755Z,4.22
2023-12-19T17:35:36.357Z,3.97
2023-12-19T17:38:05.038Z,10.93
2023-12-19T17:40:33.614Z,12.70
2023-12-19T17:43:02.296Z,17.35
2023-12-19T17:45:30.965Z,17.73
2023-12-19T17:47:59.519Z,15.90
2023-12-19T17:50:31.091Z,15.68
2023-12-19T17:53:00.049Z,12.40
2023-12-19T17:55:28.667Z,11.93
2023-12-19T17:57:57.343Z,10.52
2023-12-19T18:00:25.961Z,10.18
2023-12-19T18:02:55.421Z,11.82
2023-12-19T18:05:23.931Z,11.70
2023-12-19T18:07:53.883Z,9.35
2023-12-19T18:10:22.982Z,8.80
2023-12-19T18:12:52.796Z,8.50
2023-12-19T18:15:21.437Z,9.20
2023-12-19T18:17:50.026Z,7.47
2023-12-19T18:20:20.323Z,7.65
2023-12-19T18:22:52.402Z,7.38
2023-12-19T18:25:23.733Z,7.85
2023-12-19T18:27:52.692Z,8.02
2023-12-19T18:30:21.473Z,7.07
2023-12-19T18:32:50.125Z,7.70
2023-12-19T18:35:19.749Z,7.35
2023-12-19T18:37:50.731Z,7.70
2023-12-19T18:40:19.681Z,6.63
2023-12-19T18:42:56.334Z,7.18
2023-12-19T18:45:25.190Z,11.23
2023-12-19T18:47:54.083Z,12.57
2023-12-19T18:50:22.910Z,7.80
2023-12-19T18:52:54.338Z,7.82
2023-12-19T18:55:24.005Z,7.03
2023-12-19T18:57:54.484Z,7.00
2023-12-19T19:00:23.304Z,6.35
2023-12-19T19:02:52.067Z,6.47
2023-12-19T19:05:20.896Z,6.28
2023-12-19T19:07:52.584Z,5.88
2023-12-19T19:10:23.069Z,6.30
2023-12-19T19:12:54.088Z,5.90
2023-12-19T19:15:24.402Z,6.25
2023-12-19T19:17:52.941Z,5.65
2023-12-19T19:20:37.452Z,6.00
2023-12-19T19:23:06.293Z,5.68
2023-12-19T19:25:35.584Z,5.50
2023-12-19T19:28:04.302Z,5.97
2023-12-19T19:30:34.675Z,5.50
2023-12-19T19:33:03.827Z,5.25
2023-12-19T19:35:32.365Z,6.00
2023-12-19T19:38:03.308Z,5.60
2023-12-19T19:40:38.870Z,5.60
2023-12-19T19:43:13.240Z,5.38
2023-12-19T19:45:43.683Z,5.13
2023-12-19T19:48:12.842Z,5.15
2023-12-19T19:50:42.766Z,5.40
2023-12-19T19:53:11.822Z,5.35
2023-12-19T19:55:40.438Z,5.25
2023-12-19T19:58:08.988Z,5.43
2023-12-19T20:00:38.291Z,5.57
2023-12-19T20:03:08.420Z,5.10
2023-12-19T20:05:37.181Z,5.15
2023-12-19T20:08:08.545Z,5.25
2023-12-19T20:10:37.415Z,4.78
2023-12-19T20:13:06.285Z,5.10
2023-12-19T20:15:35.020Z,4.63
2023-12-19T20:18:03.983Z,4.93
2023-12-19T20:20:33.969Z,5.00
2023-12-19T20:23:02.645Z,4.78
2023-12-19T20:25:31.136Z,5.03
2023-12-19T20:27:59.846Z,4.57
2023-12-19T20:30:28.407Z,4.57
2023-12-19T20:32:58.841Z,4.63
2023-12-19T20:35:28.041Z,4.57
2023-12-19T20:37:59.710Z,4.32
2023-12-19T20:40:31.876Z,4.85
2023-12-19T20:43:00.979Z,4.32
2023-12-19T20:45:29.528Z,4.70
2023-12-19T20:47:58.339Z,5.38
2023-12-19T20:50:27.157Z,4.68
2023-12-19T20:52:57.743Z,5.00
2023-12-19T20:55:26.497Z,4.22
2023-12-19T20:57:55.333Z,4.72
2023-12-19T21:00:26.514Z,4.55
2023-12-19T21:02:55.401Z,4.47
2023-12-19T21:05:24.263Z,4.75
2023-12-19T21:07:52.893Z,4.63
2023-12-19T21:10:23.674Z,4.18
2023-12-19T21:12:52.312Z,4.63
2023-12-19T21:15:21.284Z,4.47
2023-12-19T21:17:49.783Z,4.30
2023-12-19T21:20:18.684Z,4.35
2023-12-19T21:22:48.046Z,4.10
2023-12-19T21:25:17.721Z,4.45
2023-12-19T21:27:50.916Z,4.68
2023-12-19T21:30:19.961Z,4.63
2023-12-19T21:32:48.862Z,4.18
2023-12-19T21:35:18.137Z,3.70
2023-12-19T21:37:46.671Z,4.70
2023-12-19T21:40:15.476Z,3.92
2023-12-19T21:42:44.649Z,4.10
2023-12-19T21:45:15.148Z,3.83
2023-12-19T21:47:46.263Z,4.30
2023-12-19T21:50:16.557Z,3.95
2023-12-19T21:52:45.712Z,4.00
2023-12-19T21:55:14.253Z,3.72
2023-12-19T21:57:43.625Z,4.10
2023-12-19T22:00:14.512Z,4.20
2023-12-19T22:02:44.126Z,4.05
2023-12-19T22:05:13.283Z,3.78
2023-12-19T22:07:42.529Z,4.47
2023-12-19T22:10:11.776Z,4.00
2023-12-19T22:12:43.020Z,3.92
2023-12-19T22:15:16.708Z,3.80
2023-12-19T22:17:45.659Z,3.55
2023-12-19T22:20:17.142Z,3.83
2023-12-19T22:22:46.226Z,3.88
2023-12-19T22:25:15.735Z,4.10
2023-12-19T22:27:46.297Z,3.97
2023-12-19T22:30:16.651Z,4.05
2023-12-19T22:32:45.335Z,3.75
2023-12-19T22:35:14.093Z,3.60
2023-12-19T22:37:42.861Z,3.55
2023-12-19T22:40:13.334Z,3.92
2023-12-19T22:42:41.935Z,3.53
2023-12-19T22:45:12.843Z,3.63
2023-12-19T22:47:43.607Z,4.38
2023-12-19T22:50:12.696Z,3.85
2023-12-19T22:52:41.442Z,3.28
2023-12-19T22:55:11.471Z,3.25
2023-12-19T22:57:40.111Z,3.25
2023-12-19T23:00:17.749Z,3.10
2023-12-19T23:02:47.866Z,3.42
2023-12-19T23:05:17.745Z,3.08
2023-12-19T23:07:48.760Z,2.97
2023-12-19T23:10:17.778Z,3.50
2023-12-19T23:12:46.797Z,2.95
2023-12-19T23:15:15.505Z,3.50
2023-12-19T23:17:44.433Z,3.15
2023-12-19T23:20:15.133Z,3.17
2023-12-19T23:22:44.892Z,3.15
2023-12-19T23:25:13.929Z,2.95
2023-12-19T23:27:42.619Z,3.58
2023-12-19T23:30:13.065Z,3.08
2023-12-19T23:32:41.484Z,3.20
2023-12-19T23:35:10.368Z,3.10
2023-12-19T23:37:40.174Z,2.90
2023-12-19T23:40:10.567Z,3.13
2023-12-19T23:42:39.146Z,2.72
2023-12-19T23:45:08.557Z,2.75
2023-12-19T23:47:37.165Z,2.60
2023-12-19T23:50:06.821Z,2.35
2023-12-19T23:52:35.410Z,2.45
2023-12-19T23:55:05.864Z,2.63
2023-12-19T23:57:34.709Z,2.88
